Terminal Aerodrome Forecast
Issued by NWS

Current Version | Previous Version | Graphics & Text | Print | Product List | Glossary On
Versions: 1 2 3 4 5 6 7 8 9 10 11 12 13 14 15 16 17 18 19
093
FTUS41 KRLX 030538
TAFCKB
TAF
KCKB 030538Z 0306/0406 15007G17KT P6SM -SHRA BKN100
     FM030800 17012G21KT P6SM BKN100
     FM031200 18013G22KT 3SM SHRA OVC025
     FM031500 17011G18KT 3SM SHRA BKN015
     FM031700 20009G15KT 6SM SHRA BKN015
     FM031800 20008KT P6SM BKN040
     FM040000 23008KT P6SM SCT050=

USA.gov is the U.S. government's official web portal to all federal, state and local government web resources and services.